sensor_id;sensor_type;location;lat;lon;timestamp;temperature;humidity
22682;DHT22;11508;50.856;4.380;2023-03-14T00:01:23;11.70;1.00
22682;DHT22;11508;50.856;4.380;2023-03-14T00:03:49;11.60;1.00
22682;DHT22;11508;50.856;4.380;2023-03-14T00:06:16;11.50;1.00
22682;DHT22;11508;50.856;4.380;2023-03-14T00:08:43;11.50;1.00
22682;DHT22;11508;50.856;4.380;2023-03-14T00:11:17;11.40;1.00
22682;DHT22;11508;50.856;4.380;2023-03-14T00:13:46;11.40;1.00
22682;DHT22;11508;50.856;4.380;2023-03-14T00:16:12;11.40;1.00
22682;DHT22;11508;50.856;4.380;2023-03-14T00:18:38;11.30;1.00
22682;DHT22;11508;50.856;4.380;2023-03-14T00:21:06;11.30;5.10
22682;DHT22;11508;50.856;4.380;2023-03-14T00:23:34;11.30;12.50
22682;DHT22;11508;50.856;4.380;2023-03-14T00:26:05;11.30;15.80
22682;DHT22;11508;50.856;4.380;2023-03-14T00:28:31;11.30;19.80
22682;DHT22;11508;50.856;4.380;2023-03-14T00:30:57;11.30;19.00
22682;DHT22;11508;50.856;4.380;2023-03-14T00:33:23;11.30;21.20
22682;DHT22;11508;50.856;4.380;2023-03-14T00:36:00;11.30;27.00
22682;DHT22;11508;50.856;4.380;2023-03-14T00:38:27;11.30;25.70
22682;DHT22;11508;50.856;4.380;2023-03-14T00:40:53;11.30;25.30
22682;DHT22;11508;50.856;4.380;2023-03-14T00:43:20;11.40;23.50
22682;DHT22;11508;50.856;4.380;2023-03-14T00:45:52;11.40;22.00
22682;DHT22;11508;50.856;4.380;2023-03-14T00:48:19;11.40;17.20
22682;DHT22;11508;50.856;4.380;2023-03-14T00:50:45;11.40;15.30
22682;DHT22;11508;50.856;4.380;2023-03-14T00:53:11;11.30;16.90
22682;DHT22;11508;50.856;4.380;2023-03-14T00:55:39;11.40;15.30
22682;DHT22;11508;50.856;4.380;2023-03-14T00:58:05;11.40;11.90
22682;DHT22;11508;50.856;4.380;2023-03-14T01:00:31;11.40;14.10
22682;DHT22;11508;50.856;4.380;2023-03-14T01:02:57;11.30;16.10
22682;DHT22;11508;50.856;4.380;2023-03-14T01:05:22;11.30;19.00
22682;DHT22;11508;50.856;4.380;2023-03-14T01:07:48;11.30;17.20
22682;DHT22;11508;50.856;4.380;2023-03-14T01:10:14;11.30;18.40
22682;DHT22;11508;50.856;4.380;2023-03-14T01:12:40;11.20;20.10
22682;DHT22;11508;50.856;4.380;2023-03-14T01:15:07;11.20;18.10
22682;DHT22;11508;50.856;4.380;2023-03-14T01:17:33;11.20;22.00
22682;DHT22;11508;50.856;4.380;2023-03-14T01:19:59;11.20;20.70
22682;DHT22;11508;50.856;4.380;2023-03-14T01:22:25;11.20;19.80
22682;DHT22;11508;50.856;4.380;2023-03-14T01:24:51;11.20;19.10
22682;DHT22;11508;50.856;4.380;2023-03-14T01:27:16;11.20;20.00
22682;DHT22;11508;50.856;4.380;2023-03-14T01:29:42;11.10;22.00
22682;DHT22;11508;50.856;4.380;2023-03-14T01:32:08;11.20;20.00
22682;DHT22;11508;50.856;4.380;2023-03-14T01:34:33;11.10;15.60
22682;DHT22;11508;50.856;4.380;2023-03-14T01:36:59;11.10;18.50
22682;DHT22;11508;50.856;4.380;2023-03-14T01:39:25;11.00;20.70
22682;DHT22;11508;50.856;4.380;2023-03-14T01:41:50;11.00;23.30
22682;DHT22;11508;50.856;4.380;2023-03-14T01:44:16;10.90;23.20
22682;DHT22;11508;50.856;4.380;2023-03-14T01:46:43;10.90;24.80
22682;DHT22;11508;50.856;4.380;2023-03-14T01:49:20;10.90;21.50
22682;DHT22;11508;50.856;4.380;2023-03-14T01:52:01;10.90;17.70
22682;DHT22;11508;50.856;4.380;2023-03-14T01:55:02;11.00;18.10
22682;DHT22;11508;50.856;4.380;2023-03-14T01:57:32;10.90;27.00
22682;DHT22;11508;50.856;4.380;2023-03-14T02:00:11;10.80;41.20
22682;DHT22;11508;50.856;4.380;2023-03-14T02:02:41;10.80;46.60
22682;DHT22;11508;50.856;4.380;2023-03-14T02:05:09;10.70;67.00
22682;DHT22;11508;50.856;4.380;2023-03-14T02:08:00;10.60;80.90
22682;DHT22;11508;50.856;4.380;2023-03-14T02:10:30;10.50;90.50
22682;DHT22;11508;50.856;4.380;2023-03-14T02:12:59;10.30;99.80
22682;DHT22;11508;50.856;4.380;2023-03-14T02:15:26;10.20;99.90
22682;DHT22;11508;50.856;4.380;2023-03-14T02:17:52;10.10;99.90
22682;DHT22;11508;50.856;4.380;2023-03-14T02:20:28;10.00;99.90
22682;DHT22;11508;50.856;4.380;2023-03-14T02:22:56;9.90;99.90
22682;DHT22;11508;50.856;4.380;2023-03-14T02:26:05;9.90;99.90
22682;DHT22;11508;50.856;4.380;2023-03-14T02:28:10;9.80;99.90
22682;DHT22;11508;50.856;4.380;2023-03-14T02:30:36;9.80;99.90
22682;DHT22;11508;50.856;4.380;2023-03-14T02:33:11;9.70;99.90
22682;DHT22;11508;50.856;4.380;2023-03-14T02:38:35;9.70;99.90
22682;DHT22;11508;50.856;4.380;2023-03-14T02:41:03;9.70;99.90
22682;DHT22;11508;50.856;4.380;2023-03-14T02:43:29;9.80;99.90
22682;DHT22;11508;50.856;4.380;2023-03-14T02:45:55;9.80;99.90
22682;DHT22;11508;50.856;4.380;2023-03-14T02:48:28;9.80;99.90
22682;DHT22;11508;50.856;4.380;2023-03-14T02:51:00;9.80;99.90
22682;DHT22;11508;50.856;4.380;2023-03-14T02:53:33;9.80;99.90
22682;DHT22;11508;50.856;4.380;2023-03-14T02:55:59;9.80;99.90
22682;DHT22;11508;50.856;4.380;2023-03-14T02:58:26;9.80;99.90
22682;DHT22;11508;50.856;4.380;2023-03-14T03:00:53;9.90;99.90
22682;DHT22;11508;50.856;4.380;2023-03-14T03:03:20;9.90;99.90
22682;DHT22;11508;50.856;4.380;2023-03-14T03:05:50;10.00;99.90
22682;DHT22;11508;50.856;4.380;2023-03-14T03:08:17;10.00;99.90
22682;DHT22;11508;50.856;4.380;2023-03-14T03:10:43;10.00;99.90
22682;DHT22;11508;50.856;4.380;2023-03-14T03:13:09;10.10;99.90
22682;DHT22;11508;50.856;4.380;2023-03-14T03:15:34;10.10;99.90
22682;DHT22;11508;50.856;4.380;2023-03-14T03:18:00;10.10;99.90
22682;DHT22;11508;50.856;4.380;2023-03-14T03:20:26;10.20;99.90
22682;DHT22;11508;50.856;4.380;2023-03-14T03:22:51;10.10;99.90
22682;DHT22;11508;50.856;4.380;2023-03-14T03:25:17;10.20;99.90
22682;DHT22;11508;50.856;4.380;2023-03-14T03:27:43;10.20;99.90
22682;DHT22;11508;50.856;4.380;2023-03-14T03:30:09;10.20;99.90
22682;DHT22;11508;50.856;4.380;2023-03-14T03:32:35;10.20;99.90
22682;DHT22;11508;50.856;4.380;2023-03-14T03:35:03;10.20;99.90
22682;DHT22;11508;50.856;4.380;2023-03-14T03:37:32;10.30;99.90
22682;DHT22;11508;50.856;4.380;2023-03-14T03:39:58;10.30;99.90
22682;DHT22;11508;50.856;4.380;2023-03-14T03:42:28;10.20;99.90
22682;DHT22;11508;50.856;4.380;2023-03-14T03:44:54;10.40;99.90
22682;DHT22;11508;50.856;4.380;2023-03-14T03:47:20;10.40;99.90
22682;DHT22;11508;50.856;4.380;2023-03-14T03:49:45;10.40;99.90
22682;DHT22;11508;50.856;4.380;2023-03-14T03:52:11;10.40;99.90
22682;DHT22;11508;50.856;4.380;2023-03-14T03:54:36;10.40;99.90
22682;DHT22;11508;50.856;4.380;2023-03-14T03:57:02;10.30;99.90
22682;DHT22;11508;50.856;4.380;2023-03-14T03:59:28;10.30;99.90
22682;DHT22;11508;50.856;4.380;2023-03-14T04:01:54;10.40;99.90
22682;DHT22;11508;50.856;4.380;2023-03-14T04:04:19;10.40;99.90
22682;DHT22;11508;50.856;4.380;2023-03-14T04:06:45;10.40;99.90
22682;DHT22;11508;50.856;4.380;2023-03-14T04:09:11;10.40;99.90
22682;DHT22;11508;50.856;4.380;2023-03-14T04:11:37;10.50;99.90
22682;DHT22;11508;50.856;4.380;2023-03-14T04:14:04;10.40;99.90
22682;DHT22;11508;50.856;4.380;2023-03-14T04:16:30;10.40;99.90
22682;DHT22;11508;50.856;4.380;2023-03-14T04:18:58;10.40;99.90
22682;DHT22;11508;50.856;4.380;2023-03-14T04:21:24;10.30;99.90
22682;DHT22;11508;50.856;4.380;2023-03-14T04:23:50;10.40;99.90
22682;DHT22;11508;50.856;4.380;2023-03-14T04:26:16;10.40;99.90
22682;DHT22;11508;50.856;4.380;2023-03-14T04:28:42;10.40;99.90
22682;DHT22;11508;50.856;4.380;2023-03-14T04:31:13;10.40;99.90
22682;DHT22;11508;50.856;4.380;2023-03-14T04:33:39;10.30;99.90
22682;DHT22;11508;50.856;4.380;2023-03-14T04:36:06;10.40;99.90
22682;DHT22;11508;50.856;4.380;2023-03-14T04:38:32;10.50;99.90
22682;DHT22;11508;50.856;4.380;2023-03-14T04:40:58;10.50;99.90
22682;DHT22;11508;50.856;4.380;2023-03-14T04:43:24;10.50;99.90
22682;DHT22;11508;50.856;4.380;2023-03-14T04:45:54;10.50;99.90
22682;DHT22;11508;50.856;4.380;2023-03-14T04:48:20;10.60;99.90
22682;DHT22;11508;50.856;4.380;2023-03-14T04:50:47;10.50;99.90
22682;DHT22;11508;50.856;4.380;2023-03-14T04:53:13;10.50;99.90
22682;DHT22;11508;50.856;4.380;2023-03-14T04:55:39;10.50;99.90
22682;DHT22;11508;50.856;4.380;2023-03-14T04:58:05;10.50;99.90
22682;DHT22;11508;50.856;4.380;2023-03-14T05:00:30;10.50;99.90
22682;DHT22;11508;50.856;4.380;2023-03-14T05:02:56;10.40;99.90
22682;DHT22;11508;50.856;4.380;2023-03-14T05:05:22;10.40;99.90
22682;DHT22;11508;50.856;4.380;2023-03-14T05:07:48;10.40;99.90
22682;DHT22;11508;50.856;4.380;2023-03-14T05:10:14;10.40;99.90
22682;DHT22;11508;50.856;4.380;2023-03-14T05:12:39;10.40;99.90
22682;DHT22;11508;50.856;4.380;2023-03-14T05:15:05;10.40;99.90
22682;DHT22;11508;50.856;4.380;2023-03-14T05:17:34;10.40;99.90
22682;DHT22;11508;50.856;4.380;2023-03-14T05:20:00;10.40;99.90
22682;DHT22;11508;50.856;4.380;2023-03-14T05:22:26;10.50;99.90
22682;DHT22;11508;50.856;4.380;2023-03-14T05:24:52;10.50;99.90
22682;DHT22;11508;50.856;4.380;2023-03-14T05:27:22;10.50;99.90
22682;DHT22;11508;50.856;4.380;2023-03-14T05:29:48;10.50;99.90
22682;DHT22;11508;50.856;4.380;2023-03-14T05:32:13;10.40;99.90
22682;DHT22;11508;50.856;4.380;2023-03-14T05:34:39;10.40;99.90
22682;DHT22;11508;50.856;4.380;2023-03-14T05:37:07;10.30;99.90
22682;DHT22;11508;50.856;4.380;2023-03-14T05:39:33;10.30;99.90
22682;DHT22;11508;50.856;4.380;2023-03-14T05:41:58;10.30;99.90
22682;DHT22;11508;50.856;4.380;2023-03-14T05:44:24;10.30;99.90
22682;DHT22;11508;50.856;4.380;2023-03-14T05:46:50;10.30;99.90
22682;DHT22;11508;50.856;4.380;2023-03-14T05:49:15;10.30;99.90
22682;DHT22;11508;50.856;4.380;2023-03-14T05:51:41;10.30;99.90
22682;DHT22;11508;50.856;4.380;2023-03-14T05:54:07;10.40;99.90
22682;DHT22;11508;50.856;4.380;2023-03-14T05:56:33;10.30;99.90
22682;DHT22;11508;50.856;4.380;2023-03-14T05:58:59;10.40;99.90
22682;DHT22;11508;50.856;4.380;2023-03-14T06:01:27;10.30;99.90
22682;DHT22;11508;50.856;4.380;2023-03-14T06:03:53;10.30;99.90
22682;DHT22;11508;50.856;4.380;2023-03-14T06:06:18;10.30;99.90
22682;DHT22;11508;50.856;4.380;2023-03-14T06:08:44;10.40;99.90
22682;DHT22;11508;50.856;4.380;2023-03-14T06:11:10;10.40;99.90
22682;DHT22;11508;50.856;4.380;2023-03-14T06:13:35;10.40;99.90
22682;DHT22;11508;50.856;4.380;2023-03-14T06:16:01;10.40;99.90
22682;DHT22;11508;50.856;4.380;2023-03-14T06:18:27;10.30;99.90
22682;DHT22;11508;50.856;4.380;2023-03-14T06:20:56;10.30;99.90
22682;DHT22;11508;50.856;4.380;2023-03-14T06:23:23;10.30;99.90
22682;DHT22;11508;50.856;4.380;2023-03-14T06:25:48;10.30;99.90
22682;DHT22;11508;50.856;4.380;2023-03-14T06:28:14;10.30;99.90
22682;DHT22;11508;50.856;4.380;2023-03-14T06:30:41;10.30;99.90
22682;DHT22;11508;50.856;4.380;2023-03-14T06:33:06;10.20;99.90
22682;DHT22;11508;50.856;4.380;2023-03-14T06:35:32;10.30;99.90
22682;DHT22;11508;50.856;4.380;2023-03-14T06:37:58;10.30;99.90
22682;DHT22;11508;50.856;4.380;2023-03-14T06:40:23;10.40;99.90
22682;DHT22;11508;50.856;4.380;2023-03-14T06:42:49;10.30;99.90
22682;DHT22;11508;50.856;4.380;2023-03-14T06:45:15;10.20;99.90
22682;DHT22;11508;50.856;4.380;2023-03-14T06:47:41;10.10;99.90
22682;DHT22;11508;50.856;4.380;2023-03-14T06:50:08;10.00;99.90
22682;DHT22;11508;50.856;4.380;2023-03-14T06:52:34;9.60;99.90
22682;DHT22;11508;50.856;4.380;2023-03-14T06:55:00;9.40;99.90
22682;DHT22;11508;50.856;4.380;2023-03-14T06:57:25;9.10;99.90
22682;DHT22;11508;50.856;4.380;2023-03-14T06:59:51;9.10;99.90
22682;DHT22;11508;50.856;4.380;2023-03-14T07:02:17;8.90;99.90
22682;DHT22;11508;50.856;4.380;2023-03-14T07:04:42;9.00;99.90
22682;DHT22;11508;50.856;4.380;2023-03-14T07:07:08;8.90;99.90
22682;DHT22;11508;50.856;4.380;2023-03-14T07:09:34;8.70;99.90
22682;DHT22;11508;50.856;4.380;2023-03-14T07:12:01;8.70;99.90
22682;DHT22;11508;50.856;4.380;2023-03-14T07:14:27;8.50;99.90
22682;DHT22;11508;50.856;4.380;2023-03-14T07:16:52;8.40;99.90
22682;DHT22;11508;50.856;4.380;2023-03-14T07:19:18;8.40;99.90
22682;DHT22;11508;50.856;4.380;2023-03-14T07:21:44;8.40;99.90
22682;DHT22;11508;50.856;4.380;2023-03-14T07:24:09;8.30;99.90
22682;DHT22;11508;50.856;4.380;2023-03-14T07:26:35;8.20;99.90
22682;DHT22;11508;50.856;4.380;2023-03-14T07:29:01;8.30;99.90
22682;DHT22;11508;50.856;4.380;2023-03-14T07:31:29;8.30;99.90
22682;DHT22;11508;50.856;4.380;2023-03-14T07:33:55;8.30;99.90
22682;DHT22;11508;50.856;4.380;2023-03-14T07:36:20;8.30;99.90
22682;DHT22;11508;50.856;4.380;2023-03-14T07:38:46;8.20;99.90
22682;DHT22;11508;50.856;4.380;2023-03-14T07:41:12;8.00;99.90
22682;DHT22;11508;50.856;4.380;2023-03-14T07:43:38;8.00;99.90
22682;DHT22;11508;50.856;4.380;2023-03-14T07:46:04;8.00;99.90
22682;DHT22;11508;50.856;4.380;2023-03-14T07:48:31;8.00;99.90
22682;DHT22;11508;50.856;4.380;2023-03-14T07:50:57;8.00;99.90
22682;DHT22;11508;50.856;4.380;2023-03-14T07:53:23;8.00;99.90
22682;DHT22;11508;50.856;4.380;2023-03-14T07:55:51;8.00;99.90
22682;DHT22;11508;50.856;4.380;2023-03-14T07:58:17;8.00;99.90
22682;DHT22;11508;50.856;4.380;2023-03-14T08:00:43;8.00;99.90
22682;DHT22;11508;50.856;4.380;2023-03-14T08:03:09;8.00;99.90
22682;DHT22;11508;50.856;4.380;2023-03-14T08:05:38;8.00;99.90
22682;DHT22;11508;50.856;4.380;2023-03-14T08:08:04;8.00;99.90
22682;DHT22;11508;50.856;4.380;2023-03-14T08:10:31;8.10;99.90
22682;DHT22;11508;50.856;4.380;2023-03-14T08:12:58;8.00;99.90
22682;DHT22;11508;50.856;4.380;2023-03-14T08:15:25;8.10;99.90
22682;DHT22;11508;50.856;4.380;2023-03-14T08:17:51;8.10;99.90
22682;DHT22;11508;50.856;4.380;2023-03-14T08:20:18;8.20;99.90
22682;DHT22;11508;50.856;4.380;2023-03-14T08:22:44;8.10;99.90
22682;DHT22;11508;50.856;4.380;2023-03-14T08:25:10;8.10;99.90
22682;DHT22;11508;50.856;4.380;2023-03-14T08:27:36;8.20;99.90
22682;DHT22;11508;50.856;4.380;2023-03-14T08:30:05;8.20;99.90
22682;DHT22;11508;50.856;4.380;2023-03-14T08:32:31;8.20;99.90
22682;DHT22;11508;50.856;4.380;2023-03-14T08:34:56;8.00;99.90
22682;DHT22;11508;50.856;4.380;2023-03-14T08:37:22;8.00;99.90
22682;DHT22;11508;50.856;4.380;2023-03-14T08:39:50;8.00;99.90
22682;DHT22;11508;50.856;4.380;2023-03-14T08:42:16;7.80;99.90
22682;DHT22;11508;50.856;4.380;2023-03-14T08:44:41;7.60;99.90
22682;DHT22;11508;50.856;4.380;2023-03-14T08:47:07;7.60;99.90
22682;DHT22;11508;50.856;4.380;2023-03-14T08:49:32;7.60;99.90
22682;DHT22;11508;50.856;4.380;2023-03-14T08:51:58;7.50;99.90
22682;DHT22;11508;50.856;4.380;2023-03-14T08:54:24;7.50;99.90
22682;DHT22;11508;50.856;4.380;2023-03-14T08:56:49;7.50;99.90
22682;DHT22;11508;50.856;4.380;2023-03-14T08:59:15;7.40;99.90
22682;DHT22;11508;50.856;4.380;2023-03-14T09:01:41;7.30;99.90
22682;DHT22;11508;50.856;4.380;2023-03-14T09:04:06;7.50;99.90
22682;DHT22;11508;50.856;4.380;2023-03-14T09:06:32;7.40;99.90
22682;DHT22;11508;50.856;4.380;2023-03-14T09:08:58;7.40;99.90
22682;DHT22;11508;50.856;4.380;2023-03-14T09:11:24;7.40;99.90
22682;DHT22;11508;50.856;4.380;2023-03-14T09:13:49;7.40;99.90
22682;DHT22;11508;50.856;4.380;2023-03-14T09:16:15;7.40;99.90
22682;DHT22;11508;50.856;4.380;2023-03-14T09:18:41;7.50;99.90
22682;DHT22;11508;50.856;4.380;2023-03-14T09:21:07;7.50;99.90
22682;DHT22;11508;50.856;4.380;2023-03-14T09:23:32;7.40;99.90
22682;DHT22;11508;50.856;4.380;2023-03-14T09:25:59;7.30;99.90
22682;DHT22;11508;50.856;4.380;2023-03-14T09:28:26;7.20;99.90
22682;DHT22;11508;50.856;4.380;2023-03-14T09:30:51;7.30;99.90
22682;DHT22;11508;50.856;4.380;2023-03-14T09:33:17;7.30;99.90
22682;DHT22;11508;50.856;4.380;2023-03-14T09:35:43;7.30;99.90
22682;DHT22;11508;50.856;4.380;2023-03-14T09:38:09;7.30;99.90
22682;DHT22;11508;50.856;4.380;2023-03-14T09:40:36;7.20;99.90
22682;DHT22;11508;50.856;4.380;2023-03-14T09:43:03;7.30;99.90
22682;DHT22;11508;50.856;4.380;2023-03-14T09:45:33;7.30;99.90
22682;DHT22;11508;50.856;4.380;2023-03-14T09:48:01;7.30;99.90
22682;DHT22;11508;50.856;4.380;2023-03-14T09:50:41;7.30;99.90
22682;DHT22;11508;50.856;4.380;2023-03-14T09:53:12;7.40;99.90
22682;DHT22;11508;50.856;4.380;2023-03-14T09:55:39;7.40;99.90
22682;DHT22;11508;50.856;4.380;2023-03-14T09:58:12;7.50;99.90
22682;DHT22;11508;50.856;4.380;2023-03-14T10:00:39;7.50;99.90
22682;DHT22;11508;50.856;4.380;2023-03-14T10:05:37;7.40;99.90
22682;DHT22;11508;50.856;4.380;2023-03-14T10:08:04;7.30;99.90
22682;DHT22;11508;50.856;4.380;2023-03-14T10:10:30;7.40;99.90
22682;DHT22;11508;50.856;4.380;2023-03-14T10:13:10;7.50;99.90
22682;DHT22;11508;50.856;4.380;2023-03-14T10:15:37;7.60;99.90
22682;DHT22;11508;50.856;4.380;2023-03-14T10:18:05;7.80;99.90
22682;DHT22;11508;50.856;4.380;2023-03-14T10:20:42;8.00;99.90
22682;DHT22;11508;50.856;4.380;2023-03-14T10:25:40;8.30;99.90
22682;DHT22;11508;50.856;4.380;2023-03-14T10:28:22;8.20;99.90
22682;DHT22;11508;50.856;4.380;2023-03-14T10:30:49;8.00;99.90
22682;DHT22;11508;50.856;4.380;2023-03-14T10:38:36;7.50;99.90
22682;DHT22;11508;50.856;4.380;2023-03-14T10:41:24;7.40;99.90
22682;DHT22;11508;50.856;4.380;2023-03-14T10:43:53;7.40;99.90
22682;DHT22;11508;50.856;4.380;2023-03-14T10:46:20;7.30;99.90
22682;DHT22;11508;50.856;4.380;2023-03-14T10:48:46;7.30;99.90
22682;DHT22;11508;50.856;4.380;2023-03-14T10:54:03;7.30;99.90
22682;DHT22;11508;50.856;4.380;2023-03-14T10:56:36;7.30;99.90
22682;DHT22;11508;50.856;4.380;2023-03-14T10:59:03;7.10;99.90
22682;DHT22;11508;50.856;4.380;2023-03-14T11:01:51;7.20;99.90
22682;DHT22;11508;50.856;4.380;2023-03-14T11:04:38;7.10;99.90
22682;DHT22;11508;50.856;4.380;2023-03-14T11:07:21;7.20;99.90
22682;DHT22;11508;50.856;4.380;2023-03-14T11:13:26;7.20;99.90
22682;DHT22;11508;50.856;4.380;2023-03-14T11:21:29;7.20;99.90
22682;DHT22;11508;50.856;4.380;2023-03-14T11:24:29;7.20;99.90
22682;DHT22;11508;50.856;4.380;2023-03-14T11:27:21;7.00;99.90
22682;DHT22;11508;50.856;4.380;2023-03-14T11:32:56;6.60;99.90
22682;DHT22;11508;50.856;4.380;2023-03-14T11:35:37;6.60;99.90
22682;DHT22;11508;50.856;4.380;2023-03-14T11:40:57;6.40;99.90
22682;DHT22;11508;50.856;4.380;2023-03-14T11:43:38;6.20;99.90
22682;DHT22;11508;50.856;4.380;2023-03-14T11:48:56;6.30;99.90
22682;DHT22;11508;50.856;4.380;2023-03-14T11:51:29;6.30;99.90
22682;DHT22;11508;50.856;4.380;2023-03-14T11:54:26;6.40;99.90
22682;DHT22;11508;50.856;4.380;2023-03-14T11:57:12;6.50;99.90
22682;DHT22;11508;50.856;4.380;2023-03-14T12:02:33;6.60;99.90
22682;DHT22;11508;50.856;4.380;2023-03-14T12:10:48;6.30;99.90
22682;DHT22;11508;50.856;4.380;2023-03-14T12:13:16;6.10;99.90
22682;DHT22;11508;50.856;4.380;2023-03-14T12:15:54;6.10;99.90
22682;DHT22;11508;50.856;4.380;2023-03-14T12:18:37;6.10;99.90
22682;DHT22;11508;50.856;4.380;2023-03-14T12:21:11;6.20;99.90
22682;DHT22;11508;50.856;4.380;2023-03-14T12:23:55;6.30;99.90
22682;DHT22;11508;50.856;4.380;2023-03-14T12:26:26;6.30;99.90
22682;DHT22;11508;50.856;4.380;2023-03-14T12:34:42;6.20;99.90
22682;DHT22;11508;50.856;4.380;2023-03-14T12:37:16;6.20;99.90
22682;DHT22;11508;50.856;4.380;2023-03-14T12:40:03;6.10;99.90
22682;DHT22;11508;50.856;4.380;2023-03-14T12:42:51;6.00;99.90
22682;DHT22;11508;50.856;4.380;2023-03-14T12:48:10;6.20;99.90
22682;DHT22;11508;50.856;4.380;2023-03-14T12:50:41;6.20;99.90
22682;DHT22;11508;50.856;4.380;2023-03-14T12:53:42;6.20;99.90
22682;DHT22;11508;50.856;4.380;2023-03-14T12:56:24;6.20;99.90
22682;DHT22;11508;50.856;4.380;2023-03-14T12:59:02;6.20;99.90
22682;DHT22;11508;50.856;4.380;2023-03-14T13:01:33;5.80;99.90
22682;DHT22;11508;50.856;4.380;2023-03-14T13:04:07;5.70;99.90
22682;DHT22;11508;50.856;4.380;2023-03-14T13:06:54;5.70;99.90
22682;DHT22;11508;50.856;4.380;2023-03-14T13:12:16;6.10;99.90
22682;DHT22;11508;50.856;4.380;2023-03-14T13:14:48;6.20;99.90
22682;DHT22;11508;50.856;4.380;2023-03-14T13:17:15;6.40;99.90
22682;DHT22;11508;50.856;4.380;2023-03-14T13:19:50;6.30;99.90
22682;DHT22;11508;50.856;4.380;2023-03-14T13:22:27;6.20;99.90
22682;DHT22;11508;50.856;4.380;2023-03-14T13:25:06;6.10;99.90
22682;DHT22;11508;50.856;4.380;2023-03-14T13:27:34;6.20;99.90
22682;DHT22;11508;50.856;4.380;2023-03-14T13:30:12;6.10;99.90
22682;DHT22;11508;50.856;4.380;2023-03-14T13:32:42;6.30;99.90
22682;DHT22;11508;50.856;4.380;2023-03-14T13:37:41;6.30;99.90
22682;DHT22;11508;50.856;4.380;2023-03-14T13:40:24;6.30;99.90
22682;DHT22;11508;50.856;4.380;2023-03-14T13:43:01;6.50;99.90
22682;DHT22;11508;50.856;4.380;2023-03-14T13:45:26;6.60;99.90
22682;DHT22;11508;50.856;4.380;2023-03-14T13:47:52;6.80;99.90
22682;DHT22;11508;50.856;4.380;2023-03-14T13:50:18;6.80;99.90
22682;DHT22;11508;50.856;4.380;2023-03-14T13:52:44;6.90;99.90
22682;DHT22;11508;50.856;4.380;2023-03-14T13:55:16;7.20;99.90
22682;DHT22;11508;50.856;4.380;2023-03-14T13:57:51;7.30;99.90
22682;DHT22;11508;50.856;4.380;2023-03-14T14:00:26;7.10;99.90
22682;DHT22;11508;50.856;4.380;2023-03-14T14:02:59;7.10;99.90
22682;DHT22;11508;50.856;4.380;2023-03-14T14:05:27;7.10;99.90
22682;DHT22;11508;50.856;4.380;2023-03-14T14:07:54;7.00;99.90
22682;DHT22;11508;50.856;4.380;2023-03-14T14:10:21;7.10;99.90
22682;DHT22;11508;50.856;4.380;2023-03-14T14:13:01;7.70;99.90
22682;DHT22;11508;50.856;4.380;2023-03-14T14:15:29;8.00;99.90
22682;DHT22;11508;50.856;4.380;2023-03-14T14:18:08;8.00;85.50
22682;DHT22;11508;50.856;4.380;2023-03-14T14:20:41;7.80;1.00
22682;DHT22;11508;50.856;4.380;2023-03-14T14:23:13;7.80;1.00
22682;DHT22;11508;50.856;4.380;2023-03-14T14:25:40;7.70;1.00
22682;DHT22;11508;50.856;4.380;2023-03-14T14:28:17;7.90;99.90
22682;DHT22;11508;50.856;4.380;2023-03-14T14:30:43;8.20;99.90
22682;DHT22;11508;50.856;4.380;2023-03-14T14:33:20;8.40;99.90
22682;DHT22;11508;50.856;4.380;2023-03-14T14:36:05;8.70;98.40
22682;DHT22;11508;50.856;4.380;2023-03-14T14:38:37;9.10;1.00
22682;DHT22;11508;50.856;4.380;2023-03-14T14:41:03;8.90;1.00
22682;DHT22;11508;50.856;4.380;2023-03-14T14:43:32;8.80;99.90
22682;DHT22;11508;50.856;4.380;2023-03-14T14:46:00;8.60;99.90
22682;DHT22;11508;50.856;4.380;2023-03-14T14:48:29;8.80;99.90
22682;DHT22;11508;50.856;4.380;2023-03-14T14:53:39;8.00;92.40
22682;DHT22;11508;50.856;4.380;2023-03-14T14:56:16;7.60;94.10
22682;DHT22;11508;50.856;4.380;2023-03-14T14:58:44;7.10;1.00
22682;DHT22;11508;50.856;4.380;2023-03-14T15:01:22;6.50;1.00
22682;DHT22;11508;50.856;4.380;2023-03-14T15:03:51;6.60;99.90
22682;DHT22;11508;50.856;4.380;2023-03-14T15:06:18;7.10;1.00
22682;DHT22;11508;50.856;4.380;2023-03-14T15:08:46;7.10;99.90
22682;DHT22;11508;50.856;4.380;2023-03-14T15:11:24;7.00;99.90
22682;DHT22;11508;50.856;4.380;2023-03-14T15:13:51;7.30;29.70
22682;DHT22;11508;50.856;4.380;2023-03-14T15:16:23;7.80;99.90
22682;DHT22;11508;50.856;4.380;2023-03-14T15:18:53;8.00;99.90
22682;DHT22;11508;50.856;4.380;2023-03-14T15:21:20;8.20;99.90
22682;DHT22;11508;50.856;4.380;2023-03-14T15:23:46;8.40;99.90
22682;DHT22;11508;50.856;4.380;2023-03-14T15:26:15;8.40;25.40
22682;DHT22;11508;50.856;4.380;2023-03-14T15:28:41;8.30;1.00
22682;DHT22;11508;50.856;4.380;2023-03-14T15:31:09;8.00;99.90
22682;DHT22;11508;50.856;4.380;2023-03-14T15:33:36;7.60;99.90
22682;DHT22;11508;50.856;4.380;2023-03-14T15:36:02;7.50;99.90
22682;DHT22;11508;50.856;4.380;2023-03-14T15:38:28;7.40;99.90
22682;DHT22;11508;50.856;4.380;2023-03-14T15:40:54;7.50;94.40
22682;DHT22;11508;50.856;4.380;2023-03-14T15:43:21;7.50;1.00
22682;DHT22;11508;50.856;4.380;2023-03-14T15:45:47;7.40;99.90
22682;DHT22;11508;50.856;4.380;2023-03-14T15:48:18;7.60;99.90
22682;DHT22;11508;50.856;4.380;2023-03-14T15:50:44;7.80;99.90
22682;DHT22;11508;50.856;4.380;2023-03-14T15:53:11;7.80;1.00
22682;DHT22;11508;50.856;4.380;2023-03-14T15:55:37;7.70;1.00
22682;DHT22;11508;50.856;4.380;2023-03-14T15:58:03;7.60;99.90
22682;DHT22;11508;50.856;4.380;2023-03-14T16:00:29;7.80;99.90
22682;DHT22;11508;50.856;4.380;2023-03-14T16:02:55;7.70;99.90
22682;DHT22;11508;50.856;4.380;2023-03-14T16:05:21;7.60;99.90
22682;DHT22;11508;50.856;4.380;2023-03-14T16:07:47;7.70;99.90
22682;DHT22;11508;50.856;4.380;2023-03-14T16:10:14;7.70;99.90
22682;DHT22;11508;50.856;4.380;2023-03-14T16:12:41;7.60;99.90
22682;DHT22;11508;50.856;4.380;2023-03-14T16:15:08;7.40;1.00
22682;DHT22;11508;50.856;4.380;2023-03-14T16:17:34;7.40;99.90
22682;DHT22;11508;50.856;4.380;2023-03-14T16:20:00;7.50;99.90
22682;DHT22;11508;50.856;4.380;2023-03-14T16:22:26;7.50;99.90
22682;DHT22;11508;50.856;4.380;2023-03-14T16:24:52;7.60;99.90
22682;DHT22;11508;50.856;4.380;2023-03-14T16:27:18;7.80;99.90
22682;DHT22;11508;50.856;4.380;2023-03-14T16:29:43;7.60;1.00
22682;DHT22;11508;50.856;4.380;2023-03-14T16:32:09;7.60;1.00
22682;DHT22;11508;50.856;4.380;2023-03-14T16:34:38;7.80;1.00
22682;DHT22;11508;50.856;4.380;2023-03-14T16:37:09;7.70;1.00
22682;DHT22;11508;50.856;4.380;2023-03-14T16:39:34;7.70;1.00
22682;DHT22;11508;50.856;4.380;2023-03-14T16:42:00;7.60;1.00
22682;DHT22;11508;50.856;4.380;2023-03-14T16:44:26;7.50;31.80
22682;DHT22;11508;50.856;4.380;2023-03-14T16:46:51;7.90;99.90
22682;DHT22;11508;50.856;4.380;2023-03-14T16:49:17;8.10;99.90
22682;DHT22;11508;50.856;4.380;2023-03-14T16:52:00;8.10;99.90